sensor_id;sensor_type;location;lat;lon;timestamp;pressure;altitude;pressure_sealevel;temperature;humidity
12991;BME280;6560;57.692;11.958;2022-11-11T00:00:32;101039.72;;;29.82;100.00
12991;BME280;6560;57.692;11.958;2022-11-11T00:02:58;101025.06;;;29.25;100.00
12991;BME280;6560;57.692;11.958;2022-11-11T00:05:25;101050.38;;;29.18;100.00
12991;BME280;6560;57.692;11.958;2022-11-11T00:07:55;101030.72;;;30.24;100.00
12991;BME280;6560;57.692;11.958;2022-11-11T00:10:29;101015.19;;;29.46;100.00
12991;BME280;6560;57.692;11.958;2022-11-11T00:13:01;101014.34;;;29.89;100.00
12991;BME280;6560;57.692;11.958;2022-11-11T00:15:28;101034.06;;;29.17;100.00
12991;BME280;6560;57.692;11.958;2022-11-11T00:17:54;101036.03;;;29.60;100.00
12991;BME280;6560;57.692;11.958;2022-11-11T00:20:38;101028.34;;;28.67;100.00
12991;BME280;6560;57.692;11.958;2022-11-11T00:23:24;101052.03;;;28.89;100.00
12991;BME280;6560;57.692;11.958;2022-11-11T00:26:10;101011.31;;;28.86;100.00
12991;BME280;6560;57.692;11.958;2022-11-11T00:28:36;100986.66;;;28.55;100.00
12991;BME280;6560;57.692;11.958;2022-11-11T00:31:03;101008.69;;;29.07;100.00
12991;BME280;6560;57.692;11.958;2022-11-11T00:33:29;101048.81;;;28.19;100.00
12991;BME280;6560;57.692;11.958;2022-11-11T00:35:55;100999.16;;;28.26;100.00
12991;BME280;6560;57.692;11.958;2022-11-11T00:38:21;101047.31;;;28.62;100.00
12991;BME280;6560;57.692;11.958;2022-11-11T00:41:05;101060.03;;;28.71;100.00
12991;BME280;6560;57.692;11.958;2022-11-11T00:43:30;101060.03;;;28.71;100.00
12991;BME280;6560;57.692;11.958;2022-11-11T00:45:56;101045.38;;;28.43;100.00
12991;BME280;6560;57.692;11.958;2022-11-11T00:48:42;100998.16;;;28.17;100.00
12991;BME280;6560;57.692;11.958;2022-11-11T00:51:26;101082.53;;;28.53;100.00
12991;BME280;6560;57.692;11.958;2022-11-11T00:53:52;101069.09;;;28.71;100.00
12991;BME280;6560;57.692;11.958;2022-11-11T00:56:18;101063.53;;;28.53;100.00
12991;BME280;6560;57.692;11.958;2022-11-11T00:58:43;101027.75;;;29.28;100.00
12991;BME280;6560;57.692;11.958;2022-11-11T01:01:09;101041.94;;;28.67;100.00
12991;BME280;6560;57.692;11.958;2022-11-11T01:03:34;101044.00;;;29.12;100.00
12991;BME280;6560;57.692;11.958;2022-11-11T01:06:01;100985.53;;;28.23;100.00
12991;BME280;6560;57.692;11.958;2022-11-11T01:08:27;101063.75;;;28.82;100.00
12991;BME280;6560;57.692;11.958;2022-11-11T01:10:52;101017.47;;;28.61;100.00
12991;BME280;6560;57.692;11.958;2022-11-11T01:13:21;101057.22;;;28.54;100.00
12991;BME280;6560;57.692;11.958;2022-11-11T01:15:51;101051.06;;;28.75;100.00
12991;BME280;6560;57.692;11.958;2022-11-11T01:18:20;101080.81;;;28.69;100.00
12991;BME280;6560;57.692;11.958;2022-11-11T01:20:46;101036.44;;;28.62;100.00
12991;BME280;6560;57.692;11.958;2022-11-11T01:23:13;100962.19;;;28.40;100.00
12991;BME280;6560;57.692;11.958;2022-11-11T01:25:41;101077.44;;;28.94;100.00
12991;BME280;6560;57.692;11.958;2022-11-11T01:28:07;100996.44;;;28.31;100.00
12991;BME280;6560;57.692;11.958;2022-11-11T01:30:34;101034.53;;;28.44;100.00
12991;BME280;6560;57.692;11.958;2022-11-11T01:33:00;101064.09;;;29.44;100.00
12991;BME280;6560;57.692;11.958;2022-11-11T01:35:26;101041.41;;;29.41;100.00
12991;BME280;6560;57.692;11.958;2022-11-11T01:37:52;101095.63;;;29.13;100.00
12991;BME280;6560;57.692;11.958;2022-11-11T01:40:18;100978.91;;;29.35;100.00
12991;BME280;6560;57.692;11.958;2022-11-11T01:42:51;100955.19;;;28.80;100.00
12991;BME280;6560;57.692;11.958;2022-11-11T01:48:22;101047.69;;;29.29;100.00
12991;BME280;6560;57.692;11.958;2022-11-11T01:51:14;100995.19;;;29.21;100.00
12991;BME280;6560;57.692;11.958;2022-11-11T01:53:41;101057.66;;;29.21;100.00
12991;BME280;6560;57.692;11.958;2022-11-11T01:56:09;101048.53;;;29.16;100.00
12991;BME280;6560;57.692;11.958;2022-11-11T01:58:35;101053.19;;;29.41;100.00
12991;BME280;6560;57.692;11.958;2022-11-11T02:01:01;100981.59;;;29.25;100.00
12991;BME280;6560;57.692;11.958;2022-11-11T02:03:29;101047.84;;;29.67;100.00
12991;BME280;6560;57.692;11.958;2022-11-11T02:05:58;101050.50;;;29.44;100.00
12991;BME280;6560;57.692;11.958;2022-11-11T02:08:26;101046.44;;;28.69;100.00
12991;BME280;6560;57.692;11.958;2022-11-11T02:11:11;100992.28;;;28.81;100.00
12991;BME280;6560;57.692;11.958;2022-11-11T02:13:39;101015.00;;;29.05;100.00
12991;BME280;6560;57.692;11.958;2022-11-11T02:16:24;101052.34;;;29.51;100.00
12991;BME280;6560;57.692;11.958;2022-11-11T02:18:50;101059.50;;;29.32;100.00
12991;BME280;6560;57.692;11.958;2022-11-11T02:21:24;101069.25;;;28.88;100.00
12991;BME280;6560;57.692;11.958;2022-11-11T02:24:10;101027.25;;;28.39;100.00
12991;BME280;6560;57.692;11.958;2022-11-11T02:26:37;100989.53;;;28.77;100.00
12991;BME280;6560;57.692;11.958;2022-11-11T02:29:08;101045.75;;;28.93;100.00
12991;BME280;6560;57.692;11.958;2022-11-11T02:31:35;100926.03;;;28.41;100.00
12991;BME280;6560;57.692;11.958;2022-11-11T02:34:00;101038.72;;;29.44;100.00
12991;BME280;6560;57.692;11.958;2022-11-11T02:36:26;101027.75;;;29.18;100.00
12991;BME280;6560;57.692;11.958;2022-11-11T02:38:52;101018.22;;;28.43;100.00
12991;BME280;6560;57.692;11.958;2022-11-11T02:41:17;101025.00;;;29.15;100.00
12991;BME280;6560;57.692;11.958;2022-11-11T02:44:02;100977.00;;;29.00;100.00
12991;BME280;6560;57.692;11.958;2022-11-11T02:46:27;101047.66;;;29.21;100.00
12991;BME280;6560;57.692;11.958;2022-11-11T02:48:53;101041.06;;;28.72;100.00
12991;BME280;6560;57.692;11.958;2022-11-11T02:51:18;101025.53;;;28.50;100.00
12991;BME280;6560;57.692;11.958;2022-11-11T02:53:44;101043.81;;;28.77;100.00
12991;BME280;6560;57.692;11.958;2022-11-11T02:56:09;101047.50;;;28.89;100.00
12991;BME280;6560;57.692;11.958;2022-11-11T02:58:35;100962.13;;;28.33;100.00
12991;BME280;6560;57.692;11.958;2022-11-11T03:01:00;101039.69;;;29.64;100.00
12991;BME280;6560;57.692;11.958;2022-11-11T03:03:26;101044.53;;;28.48;100.00
12991;BME280;6560;57.692;11.958;2022-11-11T03:05:51;101055.59;;;28.77;100.00
12991;BME280;6560;57.692;11.958;2022-11-11T03:08:17;101053.09;;;27.99;100.00
12991;BME280;6560;57.692;11.958;2022-11-11T03:10:42;100999.63;;;27.80;100.00
12991;BME280;6560;57.692;11.958;2022-11-11T03:13:08;101013.69;;;28.34;100.00
12991;BME280;6560;57.692;11.958;2022-11-11T03:15:33;101046.97;;;28.17;100.00
12991;BME280;6560;57.692;11.958;2022-11-11T03:17:59;100988.22;;;28.19;100.00
12991;BME280;6560;57.692;11.958;2022-11-11T03:20:25;101033.06;;;28.97;100.00
12991;BME280;6560;57.692;11.958;2022-11-11T03:23:12;101042.09;;;28.86;100.00
12991;BME280;6560;57.692;11.958;2022-11-11T03:25:44;100998.25;;;28.30;100.00
12991;BME280;6560;57.692;11.958;2022-11-11T03:30:37;100917.41;;;26.93;100.00
12991;BME280;6560;57.692;11.958;2022-11-11T03:33:04;101005.72;;;27.59;100.00
12991;BME280;6560;57.692;11.958;2022-11-11T03:35:30;100997.91;;;27.89;100.00
12991;BME280;6560;57.692;11.958;2022-11-11T03:37:56;101013.16;;;27.80;100.00
12991;BME280;6560;57.692;11.958;2022-11-11T03:40:45;101000.09;;;27.41;100.00
12991;BME280;6560;57.692;11.958;2022-11-11T03:43:12;101039.59;;;27.22;100.00
12991;BME280;6560;57.692;11.958;2022-11-11T03:45:38;101008.13;;;26.67;100.00
12991;BME280;6560;57.692;11.958;2022-11-11T03:48:04;101022.25;;;27.85;100.00
12991;BME280;6560;57.692;11.958;2022-11-11T03:50:31;101024.19;;;27.16;100.00
12991;BME280;6560;57.692;11.958;2022-11-11T03:52:56;101005.41;;;27.31;100.00
12991;BME280;6560;57.692;11.958;2022-11-11T03:55:22;101017.97;;;28.12;100.00
12991;BME280;6560;57.692;11.958;2022-11-11T03:57:47;101014.47;;;28.20;100.00
12991;BME280;6560;57.692;11.958;2022-11-11T04:00:24;101004.16;;;27.84;100.00
12991;BME280;6560;57.692;11.958;2022-11-11T04:02:50;101022.88;;;28.62;100.00
12991;BME280;6560;57.692;11.958;2022-11-11T04:05:34;100964.63;;;28.07;100.00
12991;BME280;6560;57.692;11.958;2022-11-11T04:08:19;101028.81;;;28.08;100.00
12991;BME280;6560;57.692;11.958;2022-11-11T04:11:12;100983.59;;;28.07;100.00
12991;BME280;6560;57.692;11.958;2022-11-11T04:13:42;101031.69;;;28.26;100.00
12991;BME280;6560;57.692;11.958;2022-11-11T04:16:29;100996.53;;;28.41;100.00
12991;BME280;6560;57.692;11.958;2022-11-11T04:18:54;100973.31;;;28.95;100.00
12991;BME280;6560;57.692;11.958;2022-11-11T04:21:38;101029.56;;;29.20;100.00
12991;BME280;6560;57.692;11.958;2022-11-11T04:24:14;101045.97;;;29.37;100.00
12991;BME280;6560;57.692;11.958;2022-11-11T04:27:01;101011.34;;;28.95;100.00
12991;BME280;6560;57.692;11.958;2022-11-11T04:29:28;101005.13;;;29.25;100.00
12991;BME280;6560;57.692;11.958;2022-11-11T04:31:58;101025.13;;;29.38;100.00
12991;BME280;6560;57.692;11.958;2022-11-11T04:34:44;101053.59;;;28.57;100.00
12991;BME280;6560;57.692;11.958;2022-11-11T04:37:11;101030.50;;;27.17;100.00
12991;BME280;6560;57.692;11.958;2022-11-11T04:39:36;101040.63;;;27.33;100.00
12991;BME280;6560;57.692;11.958;2022-11-11T04:42:21;101043.16;;;27.19;100.00
12991;BME280;6560;57.692;11.958;2022-11-11T04:44:46;101020.25;;;26.91;100.00
12991;BME280;6560;57.692;11.958;2022-11-11T04:47:30;101067.56;;;27.21;100.00
12991;BME280;6560;57.692;11.958;2022-11-11T04:49:56;101066.88;;;27.38;100.00
12991;BME280;6560;57.692;11.958;2022-11-11T04:52:21;101016.91;;;27.11;100.00
12991;BME280;6560;57.692;11.958;2022-11-11T04:54:57;101077.09;;;26.93;100.00
12991;BME280;6560;57.692;11.958;2022-11-11T04:57:46;101064.00;;;27.26;100.00
12991;BME280;6560;57.692;11.958;2022-11-11T05:00:17;101054.31;;;27.45;100.00
12991;BME280;6560;57.692;11.958;2022-11-11T05:02:43;101044.22;;;27.32;100.00
12991;BME280;6560;57.692;11.958;2022-11-11T05:05:28;101073.16;;;27.34;100.00
12991;BME280;6560;57.692;11.958;2022-11-11T05:08:14;100971.38;;;26.81;100.00
12991;BME280;6560;57.692;11.958;2022-11-11T05:10:58;101016.22;;;26.64;100.00
12991;BME280;6560;57.692;11.958;2022-11-11T05:13:23;101057.91;;;27.43;100.00
12991;BME280;6560;57.692;11.958;2022-11-11T05:16:13;101069.16;;;27.76;100.00
12991;BME280;6560;57.692;11.958;2022-11-11T05:18:58;100955.63;;;27.20;100.00
12991;BME280;6560;57.692;11.958;2022-11-11T05:21:42;101015.84;;;27.76;100.00
12991;BME280;6560;57.692;11.958;2022-11-11T05:24:08;101056.19;;;27.49;100.00
12991;BME280;6560;57.692;11.958;2022-11-11T05:26:52;101054.13;;;27.28;100.00
12991;BME280;6560;57.692;11.958;2022-11-11T05:29:17;100976.94;;;26.91;100.00
12991;BME280;6560;57.692;11.958;2022-11-11T05:31:43;101059.69;;;27.42;100.00
12991;BME280;6560;57.692;11.958;2022-11-11T05:34:08;100965.13;;;26.86;100.00
12991;BME280;6560;57.692;11.958;2022-11-11T05:36:33;101074.91;;;27.29;100.00
12991;BME280;6560;57.692;11.958;2022-11-11T05:38:59;101000.28;;;26.86;100.00
12991;BME280;6560;57.692;11.958;2022-11-11T05:41:24;101011.66;;;26.58;100.00
12991;BME280;6560;57.692;11.958;2022-11-11T05:43:50;101057.41;;;27.05;100.00
12991;BME280;6560;57.692;11.958;2022-11-11T05:46:15;100932.66;;;26.86;100.00
12991;BME280;6560;57.692;11.958;2022-11-11T05:48:41;100899.66;;;26.44;100.00
12991;BME280;6560;57.692;11.958;2022-11-11T05:51:26;101085.84;;;27.37;100.00
12991;BME280;6560;57.692;11.958;2022-11-11T05:53:52;101027.91;;;27.26;100.00
12991;BME280;6560;57.692;11.958;2022-11-11T05:56:18;101057.31;;;27.68;100.00
12991;BME280;6560;57.692;11.958;2022-11-11T05:58:43;101080.88;;;27.76;100.00
12991;BME280;6560;57.692;11.958;2022-11-11T06:01:09;101062.41;;;27.42;100.00
12991;BME280;6560;57.692;11.958;2022-11-11T06:03:34;101088.59;;;27.45;100.00
12991;BME280;6560;57.692;11.958;2022-11-11T06:06:00;101063.84;;;27.88;100.00
12991;BME280;6560;57.692;11.958;2022-11-11T06:08:25;101034.25;;;27.28;100.00
12991;BME280;6560;57.692;11.958;2022-11-11T06:10:51;101099.25;;;28.05;100.00
12991;BME280;6560;57.692;11.958;2022-11-11T06:13:17;101091.88;;;27.89;100.00
12991;BME280;6560;57.692;11.958;2022-11-11T06:15:43;101094.78;;;28.08;100.00
12991;BME280;6560;57.692;11.958;2022-11-11T06:18:08;101079.28;;;27.95;100.00
12991;BME280;6560;57.692;11.958;2022-11-11T06:20:34;101069.16;;;27.77;100.00
12991;BME280;6560;57.692;11.958;2022-11-11T06:23:00;101043.59;;;26.86;100.00
12991;BME280;6560;57.692;11.958;2022-11-11T06:25:28;101051.38;;;27.27;100.00
12991;BME280;6560;57.692;11.958;2022-11-11T06:28:13;101046.50;;;27.69;100.00
12991;BME280;6560;57.692;11.958;2022-11-11T06:30:39;101034.22;;;27.23;100.00
12991;BME280;6560;57.692;11.958;2022-11-11T06:33:05;101028.94;;;27.35;100.00
12991;BME280;6560;57.692;11.958;2022-11-11T06:35:38;101125.72;;;27.50;100.00
12991;BME280;6560;57.692;11.958;2022-11-11T06:38:05;101014.94;;;26.98;100.00
12991;BME280;6560;57.692;11.958;2022-11-11T06:40:31;101105.41;;;27.18;100.00
12991;BME280;6560;57.692;11.958;2022-11-11T06:42:58;101088.56;;;27.40;100.00
12991;BME280;6560;57.692;11.958;2022-11-11T06:45:25;101054.88;;;27.17;100.00
12991;BME280;6560;57.692;11.958;2022-11-11T06:47:51;101072.28;;;27.37;100.00
12991;BME280;6560;57.692;11.958;2022-11-11T06:50:17;101133.34;;;27.82;100.00
12991;BME280;6560;57.692;11.958;2022-11-11T06:52:43;100996.31;;;26.57;100.00
12991;BME280;6560;57.692;11.958;2022-11-11T06:55:09;101143.38;;;27.92;100.00
12991;BME280;6560;57.692;11.958;2022-11-11T06:57:35;101083.25;;;27.51;100.00
12991;BME280;6560;57.692;11.958;2022-11-11T07:00:04;101083.28;;;26.86;100.00
12991;BME280;6560;57.692;11.958;2022-11-11T07:02:30;101114.75;;;26.79;100.00
12991;BME280;6560;57.692;11.958;2022-11-11T07:04:56;101080.81;;;27.01;100.00
12991;BME280;6560;57.692;11.958;2022-11-11T07:07:21;101086.72;;;27.37;100.00
12991;BME280;6560;57.692;11.958;2022-11-11T07:09:47;101064.69;;;27.81;100.00
12991;BME280;6560;57.692;11.958;2022-11-11T07:12:12;101012.00;;;27.53;100.00
12991;BME280;6560;57.692;11.958;2022-11-11T07:14:38;101138.44;;;27.54;100.00
12991;BME280;6560;57.692;11.958;2022-11-11T07:17:03;101124.44;;;26.65;100.00
12991;BME280;6560;57.692;11.958;2022-11-11T07:19:29;101011.00;;;26.77;100.00
12991;BME280;6560;57.692;11.958;2022-11-11T07:21:55;100997.84;;;27.05;100.00
12991;BME280;6560;57.692;11.958;2022-11-11T07:24:20;101076.84;;;27.41;100.00
12991;BME280;6560;57.692;11.958;2022-11-11T07:26:46;101091.75;;;27.78;100.00
12991;BME280;6560;57.692;11.958;2022-11-11T07:29:11;101088.31;;;27.20;100.00
12991;BME280;6560;57.692;11.958;2022-11-11T07:31:38;101072.66;;;26.98;100.00
12991;BME280;6560;57.692;11.958;2022-11-11T07:34:04;101133.84;;;27.50;100.00
12991;BME280;6560;57.692;11.958;2022-11-11T07:36:29;101140.28;;;28.35;100.00
12991;BME280;6560;57.692;11.958;2022-11-11T07:38:55;101059.75;;;28.31;100.00
12991;BME280;6560;57.692;11.958;2022-11-11T07:41:21;101067.56;;;27.99;100.00
12991;BME280;6560;57.692;11.958;2022-11-11T07:43:46;101158.28;;;28.30;100.00
12991;BME280;6560;57.692;11.958;2022-11-11T07:46:12;101108.16;;;27.92;100.00
12991;BME280;6560;57.692;11.958;2022-11-11T07:48:37;101043.22;;;28.05;100.00
12991;BME280;6560;57.692;11.958;2022-11-11T07:51:03;101166.13;;;28.93;100.00
12991;BME280;6560;57.692;11.958;2022-11-11T07:53:28;101169.84;;;29.11;100.00
12991;BME280;6560;57.692;11.958;2022-11-11T07:55:54;101162.66;;;29.19;100.00
12991;BME280;6560;57.692;11.958;2022-11-11T07:58:20;101120.66;;;28.71;100.00
12991;BME280;6560;57.692;11.958;2022-11-11T08:00:46;101180.59;;;28.97;100.00
12991;BME280;6560;57.692;11.958;2022-11-11T08:03:11;101074.00;;;27.29;100.00
12991;BME280;6560;57.692;11.958;2022-11-11T08:05:37;101185.06;;;28.00;100.00
12991;BME280;6560;57.692;11.958;2022-11-11T08:08:04;101067.75;;;27.36;100.00
12991;BME280;6560;57.692;11.958;2022-11-11T08:10:30;101121.56;;;27.78;100.00
12991;BME280;6560;57.692;11.958;2022-11-11T08:12:56;101187.00;;;29.05;100.00
12991;BME280;6560;57.692;11.958;2022-11-11T08:15:40;101120.16;;;29.30;100.00
12991;BME280;6560;57.692;11.958;2022-11-11T08:18:06;101197.25;;;29.46;100.00
12991;BME280;6560;57.692;11.958;2022-11-11T08:20:32;101143.97;;;29.90;100.00
12991;BME280;6560;57.692;11.958;2022-11-11T08:22:57;101178.47;;;29.97;100.00
12991;BME280;6560;57.692;11.958;2022-11-11T08:25:23;101183.97;;;30.16;100.00
12991;BME280;6560;57.692;11.958;2022-11-11T08:27:55;101149.38;;;29.78;100.00
12991;BME280;6560;57.692;11.958;2022-11-11T08:30:21;101115.94;;;30.06;100.00
12991;BME280;6560;57.692;11.958;2022-11-11T08:32:46;101122.31;;;30.30;100.00
12991;BME280;6560;57.692;11.958;2022-11-11T08:35:12;101161.38;;;30.61;100.00
12991;BME280;6560;57.692;11.958;2022-11-11T08:37:37;101205.56;;;29.73;100.00
12991;BME280;6560;57.692;11.958;2022-11-11T08:40:03;101218.34;;;30.00;100.00
12991;BME280;6560;57.692;11.958;2022-11-11T08:42:29;101158.97;;;29.08;100.00
12991;BME280;6560;57.692;11.958;2022-11-11T08:44:54;101262.72;;;28.73;100.00
12991;BME280;6560;57.692;11.958;2022-11-11T08:47:20;101264.09;;;28.32;100.00
12991;BME280;6560;57.692;11.958;2022-11-11T08:49:46;101231.22;;;28.89;100.00
12991;BME280;6560;57.692;11.958;2022-11-11T08:52:14;101209.78;;;28.26;100.00
12991;BME280;6560;57.692;11.958;2022-11-11T08:54:40;101202.84;;;27.75;100.00
12991;BME280;6560;57.692;11.958;2022-11-11T08:57:05;101233.94;;;28.87;100.00
12991;BME280;6560;57.692;11.958;2022-11-11T08:59:31;101158.31;;;28.33;100.00
12991;BME280;6560;57.692;11.958;2022-11-11T09:01:56;101236.94;;;29.24;100.00
12991;BME280;6560;57.692;11.958;2022-11-11T09:04:22;101226.41;;;28.59;100.00
12991;BME280;6560;57.692;11.958;2022-11-11T09:06:47;101236.91;;;29.19;100.00
12991;BME280;6560;57.692;11.958;2022-11-11T09:09:13;101205.34;;;28.34;100.00
12991;BME280;6560;57.692;11.958;2022-11-11T09:11:38;101237.81;;;29.20;100.00
12991;BME280;6560;57.692;11.958;2022-11-11T09:14:04;101253.38;;;29.39;100.00
12991;BME280;6560;57.692;11.958;2022-11-11T09:16:29;101241.72;;;29.63;100.00
12991;BME280;6560;57.692;11.958;2022-11-11T09:18:54;101240.34;;;28.94;100.00
12991;BME280;6560;57.692;11.958;2022-11-11T09:21:20;101216.91;;;29.10;100.00
12991;BME280;6560;57.692;11.958;2022-11-11T09:23:46;101214.16;;;29.08;100.00
12991;BME280;6560;57.692;11.958;2022-11-11T09:26:11;101147.16;;;29.01;100.00
12991;BME280;6560;57.692;11.958;2022-11-11T09:28:37;101233.59;;;29.69;100.00
12991;BME280;6560;57.692;11.958;2022-11-11T09:31:02;101157.41;;;29.46;100.00
12991;BME280;6560;57.692;11.958;2022-11-11T09:33:29;101274.19;;;29.39;100.00
12991;BME280;6560;57.692;11.958;2022-11-11T09:35:56;101263.13;;;29.14;100.00
12991;BME280;6560;57.692;11.958;2022-11-11T09:38:23;101267.41;;;28.89;100.00
12991;BME280;6560;57.692;11.958;2022-11-11T09:40:59;101256.25;;;28.59;100.00
12991;BME280;6560;57.692;11.958;2022-11-11T09:43:50;101267.34;;;28.80;100.00
12991;BME280;6560;57.692;11.958;2022-11-11T09:49:37;101287.34;;;28.91;100.00
12991;BME280;6560;57.692;11.958;2022-11-11T09:52:15;101286.63;;;29.12;100.00
12991;BME280;6560;57.692;11.958;2022-11-11T09:54:47;101273.44;;;29.59;100.00
12991;BME280;6560;57.692;11.958;2022-11-11T10:00:16;101205.78;;;28.75;100.00
12991;BME280;6560;57.692;11.958;2022-11-11T10:02:50;101256.22;;;28.58;100.00
12991;BME280;6560;57.692;11.958;2022-11-11T10:06:37;101291.88;;;28.91;100.00
12991;BME280;6560;57.692;11.958;2022-11-11T10:08:36;101294.50;;;29.92;100.00
12991;BME280;6560;57.692;11.958;2022-11-11T10:11:12;101288.97;;;29.88;100.00
12991;BME280;6560;57.692;11.958;2022-11-11T10:13:39;101301.78;;;30.07;100.00
12991;BME280;6560;57.692;11.958;2022-11-11T10:21:35;101214.56;;;29.60;100.00
12991;BME280;6560;57.692;11.958;2022-11-11T10:24:05;101213.88;;;28.73;100.00
12991;BME280;6560;57.692;11.958;2022-11-11T10:26:38;101319.13;;;29.02;100.00
12991;BME280;6560;57.692;11.958;2022-11-11T10:29:13;101337.94;;;28.80;100.00
12991;BME280;6560;57.692;11.958;2022-11-11T10:31:41;101287.34;;;28.91;100.00
12991;BME280;6560;57.692;11.958;2022-11-11T10:34:11;101214.22;;;28.19;100.00
12991;BME280;6560;57.692;11.958;2022-11-11T10:36:43;101255.19;;;28.42;100.00
12991;BME280;6560;57.692;11.958;2022-11-11T10:39:14;101268.88;;;28.57;100.00
12991;BME280;6560;57.692;11.958;2022-11-11T10:41:45;101347.13;;;28.95;100.00
12991;BME280;6560;57.692;11.958;2022-11-11T10:44:24;101284.25;;;28.53;100.00
12991;BME280;6560;57.692;11.958;2022-11-11T10:47:29;101355.06;;;28.76;100.00
12991;BME280;6560;57.692;11.958;2022-11-11T10:53:32;101353.97;;;29.45;100.00
12991;BME280;6560;57.692;11.958;2022-11-11T10:56:29;101283.34;;;28.56;100.00
12991;BME280;6560;57.692;11.958;2022-11-11T10:59:18;101243.72;;;28.72;100.00
12991;BME280;6560;57.692;11.958;2022-11-11T11:01:53;101371.81;;;29.22;100.00
12991;BME280;6560;57.692;11.958;2022-11-11T11:04:39;101349.16;;;29.18;100.00
12991;BME280;6560;57.692;11.958;2022-11-11T11:07:06;101318.16;;;28.95;100.00
12991;BME280;6560;57.692;11.958;2022-11-11T11:12:26;101351.59;;;29.94;100.00
12991;BME280;6560;57.692;11.958;2022-11-11T11:14:57;101291.63;;;28.70;100.00
12991;BME280;6560;57.692;11.958;2022-11-11T11:18:05;101360.13;;;29.30;100.00
12991;BME280;6560;57.692;11.958;2022-11-11T11:20:32;101268.47;;;29.05;100.00
12991;BME280;6560;57.692;11.958;2022-11-11T11:22:58;101269.09;;;28.75;100.00
12991;BME280;6560;57.692;11.958;2022-11-11T11:25:27;101286.75;;;29.26;100.00
12991;BME280;6560;57.692;11.958;2022-11-11T11:28:12;101286.19;;;28.67;100.00
12991;BME280;6560;57.692;11.958;2022-11-11T11:30:38;101319.91;;;28.90;100.00
12991;BME280;6560;57.692;11.958;2022-11-11T11:33:08;101320.88;;;28.97;100.00
12991;BME280;6560;57.692;11.958;2022-11-11T11:35:42;101212.53;;;28.27;100.00
12991;BME280;6560;57.692;11.958;2022-11-11T11:38:12;101374.47;;;29.16;100.00
12991;BME280;6560;57.692;11.958;2022-11-11T11:40:53;101362.75;;;29.21;100.00
12991;BME280;6560;57.692;11.958;2022-11-11T11:46:02;101364.19;;;29.84;100.00
12991;BME280;6560;57.692;11.958;2022-11-11T11:51:17;101366.19;;;30.08;100.00
12991;BME280;6560;57.692;11.958;2022-11-11T11:58:59;101351.94;;;30.61;100.00
12991;BME280;6560;57.692;11.958;2022-11-11T12:04:49;101365.03;;;29.76;100.00
12991;BME280;6560;57.692;11.958;2022-11-11T12:10:45;101356.53;;;30.86;100.00
12991;BME280;6560;57.692;11.958;2022-11-11T12:16:26;101367.47;;;30.97;100.00
12991;BME280;6560;57.692;11.958;2022-11-11T12:24:41;101372.19;;;29.60;100.00
12991;BME280;6560;57.692;11.958;2022-11-11T12:27:44;101369.63;;;29.83;100.00
12991;BME280;6560;57.692;11.958;2022-11-11T12:30:22;101368.28;;;30.62;100.00
12991;BME280;6560;57.692;11.958;2022-11-11T12:33:19;101369.09;;;30.43;100.00
12991;BME280;6560;57.692;11.958;2022-11-11T12:39:00;101396.44;;;28.57;100.00
12991;BME280;6560;57.692;11.958;2022-11-11T12:41:40;101402.47;;;29.07;100.00
12991;BME280;6560;57.692;11.958;2022-11-11T12:44:13;101405.19;;;29.09;100.00
12991;BME280;6560;57.692;11.958;2022-11-11T12:46:58;101344.97;;;28.65;100.00
12991;BME280;6560;57.692;11.958;2022-11-11T12:49:34;101404.19;;;28.99;100.00
12991;BME280;6560;57.692;11.958;2022-11-11T12:55:29;101413.28;;;29.04;100.00
12991;BME280;6560;57.692;11.958;2022-11-11T12:58:30;101418.16;;;30.57;100.00
12991;BME280;6560;57.692;11.958;2022-11-11T13:17:10;101420.25;;;29.67;100.00
12991;BME280;6560;57.692;11.958;2022-11-11T13:19:45;101378.06;;;29.10;100.00
12991;BME280;6560;57.692;11.958;2022-11-11T13:22:18;101425.03;;;29.00;100.00
12991;BME280;6560;57.692;11.958;2022-11-11T13:24:47;101451.75;;;28.70;100.00
12991;BME280;6560;57.692;11.958;2022-11-11T13:30:16;101407.94;;;28.38;100.00
12991;BME280;6560;57.692;11.958;2022-11-11T13:32:55;101441.94;;;28.76;100.00
12991;BME280;6560;57.692;11.958;2022-11-11T13:35:44;101426.53;;;28.75;100.00
12991;BME280;6560;57.692;11.958;2022-11-11T13:38:21;101371.25;;;28.01;100.00
12991;BME280;6560;57.692;11.958;2022-11-11T13:40:51;101361.97;;;29.33;100.00
12991;BME280;6560;57.692;11.958;2022-11-11T13:45:51;101309.38;;;29.28;100.00
12991;BME280;6560;57.692;11.958;2022-11-11T13:48:38;101433.53;;;30.48;100.00
12991;BME280;6560;57.692;11.958;2022-11-11T13:53:46;101440.03;;;30.85;100.00
12991;BME280;6560;57.692;11.958;2022-11-11T13:56:22;101319.59;;;29.52;100.00
12991;BME280;6560;57.692;11.958;2022-11-11T13:58:49;101395.84;;;29.75;100.00
12991;BME280;6560;57.692;11.958;2022-11-11T14:01:15;101443.34;;;30.21;100.00
12991;BME280;6560;57.692;11.958;2022-11-11T14:13:56;101440.34;;;29.84;100.00
12991;BME280;6560;57.692;11.958;2022-11-11T14:22:00;101345.06;;;29.70;100.00
12991;BME280;6560;57.692;11.958;2022-11-11T14:27:03;101360.13;;;29.27;100.00
12991;BME280;6560;57.692;11.958;2022-11-11T14:29:48;101404.38;;;30.25;100.00
12991;BME280;6560;57.692;11.958;2022-11-11T14:32:29;101349.59;;;29.68;100.00
12991;BME280;6560;57.692;11.958;2022-11-11T14:35:14;101458.63;;;30.00;100.00
12991;BME280;6560;57.692;11.958;2022-11-11T14:40:31;101478.97;;;30.60;100.00